createdAt,value
2023-01-02T00:00:00.698Z,5.8
2023-01-02T00:05:00.728Z,5.8
2023-01-02T00:10:00.755Z,5.8
2023-01-02T00:15:00.808Z,5.9
2023-01-02T00:20:00.695Z,5.8
2023-01-02T00:25:00.702Z,5.7
2023-01-02T00:30:00.777Z,5.7
2023-01-02T00:35:00.714Z,5.7
2023-01-02T00:40:00.707Z,5.8
2023-01-02T00:45:00.732Z,5.8
2023-01-02T00:50:00.757Z,5.7
2023-01-02T00:55:00.679Z,5.7
2023-01-02T01:00:00.698Z,5.8
2023-01-02T01:05:00.713Z,5.8
2023-01-02T01:10:00.750Z,5.8
2023-01-02T01:15:00.701Z,5.8
2023-01-02T01:20:00.763Z,5.7
2023-01-02T01:25:00.789Z,5.7
2023-01-02T01:30:00.739Z,5.6
2023-01-02T01:35:00.770Z,5.6
2023-01-02T01:40:00.730Z,5.6
2023-01-02T01:45:00.792Z,5.6
2023-01-02T01:50:04.912Z,5.5
2023-01-02T01:55:00.806Z,5.5
2023-01-02T02:00:00.721Z,5.6
2023-01-02T02:05:00.705Z,5.6
2023-01-02T02:10:00.686Z,5.6
2023-01-02T02:15:00.706Z,5.6
2023-01-02T02:20:00.746Z,5.5
2023-01-02T02:25:00.718Z,5.6
2023-01-02T02:30:00.817Z,5.5
2023-01-02T02:35:00.763Z,5.4
2023-01-02T02:40:00.733Z,5.4
2023-01-02T02:45:00.759Z,5.4
2023-01-02T02:50:00.757Z,5.4
2023-01-02T02:55:00.758Z,5.4
2023-01-02T03:00:00.774Z,5.4
2023-01-02T03:05:00.680Z,5.4
2023-01-02T03:10:00.708Z,5.6
2023-01-02T03:15:00.470Z,5.6
2023-01-02T03:20:00.698Z,5.6
2023-01-02T03:25:00.800Z,5.5
2023-01-02T03:30:00.793Z,5.4
2023-01-02T03:35:00.741Z,5.5
2023-01-02T03:40:00.758Z,5.6
2023-01-02T03:45:00.757Z,5.7
2023-01-02T03:50:00.767Z,5.6
2023-01-02T03:55:00.703Z,5.6
2023-01-02T04:00:00.806Z,5.6
2023-01-02T04:05:00.712Z,5.7
2023-01-02T04:10:00.782Z,5.6
2023-01-02T04:15:00.857Z,5.6
2023-01-02T04:20:00.773Z,5.7
2023-01-02T04:25:00.714Z,5.6
2023-01-02T04:30:00.783Z,5.6
2023-01-02T04:35:00.707Z,5.6
2023-01-02T04:40:00.742Z,5.6
2023-01-02T04:45:00.761Z,5.6
2023-01-02T04:50:00.751Z,5.6
2023-01-02T04:55:00.758Z,5.6
2023-01-02T05:00:00.773Z,5.6
2023-01-02T05:05:00.644Z,5.5
2023-01-02T05:10:00.693Z,5.5
2023-01-02T05:15:00.748Z,5.5
2023-01-02T05:20:00.722Z,5.6
2023-01-02T05:25:00.720Z,5.6
2023-01-02T05:30:00.765Z,5.6
2023-01-02T05:35:00.759Z,5.6
2023-01-02T05:40:00.803Z,5.6
2023-01-02T05:45:00.752Z,5.6
2023-01-02T05:50:00.832Z,5.6
2023-01-02T05:55:00.765Z,5.6
2023-01-02T06:00:00.770Z,5.6
2023-01-02T06:05:00.830Z,5.6
2023-01-02T06:10:00.772Z,5.6
2023-01-02T06:15:00.739Z,5.6
2023-01-02T06:20:00.751Z,5.6
2023-01-02T06:25:00.749Z,5.6
2023-01-02T06:30:00.720Z,5.6
2023-01-02T06:35:00.719Z,5.6
2023-01-02T06:40:00.730Z,5.6
2023-01-02T06:45:00.755Z,5.6
2023-01-02T06:50:00.747Z,5.6
2023-01-02T06:55:00.759Z,5.6
2023-01-02T07:00:00.739Z,5.6
2023-01-02T07:05:00.748Z,5.6
2023-01-02T07:10:00.755Z,5.5
2023-01-02T07:15:00.769Z,5.6
2023-01-02T07:20:02.125Z,5.6
2023-01-02T07:25:00.762Z,5.6
2023-01-02T07:30:00.769Z,5.7
2023-01-02T07:35:00.758Z,5.7
2023-01-02T07:40:00.760Z,5.7
2023-01-02T07:45:00.823Z,5.7
2023-01-02T07:50:00.774Z,5.7
2023-01-02T07:55:00.763Z,5.7
2023-01-02T08:00:00.861Z,5.7
2023-01-02T08:05:00.765Z,5.8
2023-01-02T08:10:00.740Z,5.8
2023-01-02T08:15:00.739Z,5.8
2023-01-02T08:20:07.011Z,5.9
2023-01-02T08:25:00.732Z,5.9
2023-01-02T08:30:00.734Z,5.9
2023-01-02T08:35:00.757Z,6
2023-01-02T08:40:00.745Z,6
2023-01-02T08:45:00.770Z,6.1
2023-01-02T08:50:00.729Z,6.2
2023-01-02T08:55:00.775Z,6.3
2023-01-02T09:00:00.772Z,6.3
2023-01-02T09:05:00.776Z,6.4
2023-01-02T09:10:00.887Z,6.5
2023-01-02T09:15:00.729Z,6.7
2023-01-02T09:20:00.769Z,6.8
2023-01-02T09:25:00.700Z,6.9
2023-01-02T09:30:00.723Z,7
2023-01-02T09:35:00.724Z,7
2023-01-02T09:40:00.748Z,7
2023-01-02T09:45:06.408Z,7.1
2023-01-02T09:50:00.769Z,7.2
2023-01-02T09:55:00.728Z,7.3
2023-01-02T10:00:00.767Z,7.5
2023-01-02T10:05:00.744Z,7.7
2023-01-02T10:10:00.777Z,7.8
2023-01-02T10:15:00.854Z,8
2023-01-02T10:20:00.767Z,8
2023-01-02T10:25:00.728Z,8.1
2023-01-02T10:30:00.716Z,8.2
2023-01-02T10:35:00.723Z,8.2
2023-01-02T10:40:00.719Z,8.1
2023-01-02T10:45:00.775Z,8.1
2023-01-02T10:50:00.776Z,8.1
2023-01-02T10:55:00.994Z,8.2
2023-01-02T11:00:00.745Z,8.2
2023-01-02T11:05:00.755Z,8.2
2023-01-02T11:10:00.728Z,8.2
2023-01-02T11:15:00.794Z,8.3
2023-01-02T11:20:00.769Z,8.1
2023-01-02T11:25:01.344Z,8.1
2023-01-02T11:30:00.744Z,8
2023-01-02T11:35:00.714Z,7.9
2023-01-02T11:40:00.756Z,7.5
2023-01-02T11:45:00.804Z,7.8
2023-01-02T11:50:00.845Z,8.1
2023-01-02T11:55:00.747Z,7.9
2023-01-02T12:00:00.739Z,8.2
2023-01-02T12:05:00.740Z,7.6
2023-01-02T12:10:00.774Z,7.3
2023-01-02T12:15:00.788Z,7.1
2023-01-02T12:20:05.325Z,7.1
2023-01-02T12:25:00.752Z,7.3
2023-01-02T12:30:00.801Z,7.1
2023-01-02T12:35:00.806Z,7.3
2023-01-02T12:40:00.787Z,7.3
2023-01-02T12:45:00.764Z,7.5
2023-01-02T12:50:00.563Z,7.5
2023-01-02T12:55:00.641Z,7.6
2023-01-02T13:00:00.800Z,7.3
2023-01-02T13:05:00.741Z,7.3
2023-01-02T13:10:00.744Z,7.2
2023-01-02T13:15:00.816Z,7.4
2023-01-02T13:20:00.768Z,7.5
2023-01-02T13:25:00.751Z,7.2
2023-01-02T13:30:00.771Z,7.2
2023-01-02T13:35:00.735Z,7.2
2023-01-02T13:40:00.726Z,7.1
2023-01-02T13:45:00.799Z,7.3
2023-01-02T13:50:00.707Z,7.2
2023-01-02T13:55:00.719Z,7.1
2023-01-02T14:00:00.734Z,7.1
2023-01-02T14:05:00.735Z,7
2023-01-02T14:10:00.752Z,7.2
2023-01-02T14:15:00.755Z,7.1
2023-01-02T14:25:00.777Z,6.7
2023-01-02T14:30:00.823Z,6.8
2023-01-02T14:35:00.810Z,6.7
2023-01-02T14:40:00.720Z,6.7
2023-01-02T14:45:00.732Z,6.7
2023-01-02T14:50:00.793Z,6.7
2023-01-02T14:55:00.749Z,6.8
2023-01-02T15:00:00.749Z,6.6
2023-01-02T15:05:00.750Z,6.6
2023-01-02T15:10:00.737Z,6.6
2023-01-02T15:15:00.846Z,6.6
2023-01-02T15:20:00.747Z,6.6
2023-01-02T15:25:00.796Z,6.6
2023-01-02T15:30:00.762Z,6.6
2023-01-02T15:35:00.733Z,6.6
2023-01-02T15:40:00.767Z,6.5
2023-01-02T15:45:00.747Z,6.6
2023-01-02T15:50:00.791Z,6.6
2023-01-02T15:55:00.739Z,6.9
2023-01-02T16:00:00.771Z,6.6
2023-01-02T16:05:00.773Z,6.6
2023-01-02T16:10:00.806Z,6.7
2023-01-02T16:15:00.750Z,6.7
2023-01-02T16:20:00.745Z,6.7
2023-01-02T16:25:00.740Z,6.6
2023-01-02T16:30:00.777Z,6.6
2023-01-02T16:35:00.743Z,6.6
2023-01-02T16:40:00.742Z,6.7
2023-01-02T16:45:00.750Z,6.7
2023-01-02T16:50:00.728Z,6.7
2023-01-02T16:55:00.805Z,6.7
2023-01-02T17:00:00.665Z,6.7
2023-01-02T17:05:00.766Z,6.7
2023-01-02T17:10:00.713Z,6.7
2023-01-02T17:15:00.792Z,6.8
2023-01-02T17:20:00.748Z,6.8
2023-01-02T17:25:00.796Z,6.8
2023-01-02T17:30:00.728Z,6.9
2023-01-02T17:35:00.778Z,6.7
2023-01-02T17:40:00.791Z,6.9
2023-01-02T17:45:00.758Z,6.9
2023-01-02T17:50:00.811Z,6.9
2023-01-02T17:55:00.730Z,6.9
2023-01-02T18:00:00.763Z,6.9
2023-01-02T18:05:00.731Z,6.8
2023-01-02T18:10:07.219Z,6.9
2023-01-02T18:15:00.899Z,6.9
2023-01-02T18:20:00.697Z,7
2023-01-02T18:25:00.731Z,7
2023-01-02T18:30:00.715Z,7
2023-01-02T18:35:10.932Z,7
2023-01-02T18:40:00.740Z,7
2023-01-02T18:45:00.773Z,7
2023-01-02T18:50:00.793Z,7
2023-01-02T18:55:00.731Z,7
2023-01-02T19:00:00.729Z,7
2023-01-02T19:05:00.980Z,7
2023-01-02T19:10:00.727Z,7.1
2023-01-02T19:15:00.773Z,7.1
2023-01-02T19:20:01.047Z,7.1
2023-01-02T19:25:05.378Z,7.1
2023-01-02T19:30:00.796Z,7.1
2023-01-02T19:35:00.738Z,7.1
2023-01-02T19:40:00.750Z,7.2
2023-01-02T19:45:00.772Z,7.1
2023-01-02T19:50:00.755Z,7.2
2023-01-02T19:55:00.762Z,7.2
2023-01-02T20:00:00.771Z,7.2
2023-01-02T20:05:00.744Z,7.2
2023-01-02T20:10:00.802Z,7.3
2023-01-02T20:15:00.734Z,7.3
2023-01-02T20:20:00.855Z,7.4
2023-01-02T20:25:00.832Z,7.5
2023-01-02T20:30:00.812Z,7.5
2023-01-02T20:35:00.757Z,7.5
2023-01-02T20:40:00.770Z,7.5
2023-01-02T20:45:00.746Z,7.6
2023-01-02T20:50:00.854Z,7.6
2023-01-02T20:55:00.786Z,7.5
2023-01-02T21:00:00.755Z,7.6
2023-01-02T21:05:00.734Z,7.6
2023-01-02T21:10:00.814Z,7.6
2023-01-02T21:15:00.821Z,7.6
2023-01-02T21:20:00.797Z,7.6
2023-01-02T21:25:00.701Z,7.7
2023-01-02T21:30:00.772Z,7.7
2023-01-02T21:35:00.805Z,7.7
2023-01-02T21:40:00.707Z,7.7
2023-01-02T21:45:00.766Z,7.7
2023-01-02T21:50:00.777Z,7.6
2023-01-02T21:55:00.825Z,7.7
2023-01-02T22:00:00.798Z,7.6
2023-01-02T22:05:00.794Z,7.7
2023-01-02T22:10:00.783Z,7.7
2023-01-02T22:15:00.765Z,7.7
2023-01-02T22:20:00.728Z,7.7
2023-01-02T22:25:00.823Z,7.7
2023-01-02T22:35:00.783Z,7.7
2023-01-02T22:40:00.843Z,7.7
2023-01-02T22:45:00.851Z,7.8
2023-01-02T22:50:00.809Z,7.7
2023-01-02T22:55:00.758Z,7.7
2023-01-02T23:00:00.783Z,7.7
2023-01-02T23:05:00.792Z,7.7
2023-01-02T23:10:00.712Z,7.6
2023-01-02T23:15:00.796Z,7.6
2023-01-02T23:20:00.806Z,7.6
2023-01-02T23:25:00.811Z,7.5
2023-01-02T23:30:00.782Z,7.5
2023-01-02T23:35:00.768Z,7.5
2023-01-02T23:40:00.707Z,7.4
2023-01-02T23:45:00.689Z,7.4
2023-01-02T23:50:00.737Z,7.3
2023-01-02T23:55:00.823Z,7.2
